Time;durP1;ratioP1;P1;durP2;ratioP2;P2;SDS_P1;SDS_P2;PMS_P1;PMS_P2;Temp;Humidity;BMP_temperature;BMP_pressure;BME280_temperature;BME280_humidity;BME280_pressure;Samples;Min_cycle;Max_cycle;Signal;HPM_P1;HPM_P2
2023/05/04 00:01:27;;;;;;;;;;;;;;;-144.99;82.88;52338.03;5034044;28;19925;-75
2023/05/04 00:03:53;;;;;;;;;;;;;;;-144.99;83.22;52325.81;5048910;28;19967;-75
2023/05/04 00:06:20;;;;;;;;;;;;;;;-144.99;83.24;52350.25;5032545;28;19977;-76
2023/05/04 00:08:48;;;;;;;;;;;;;;;-144.99;83.12;52366.56;5033612;28;19952;-76
2023/05/04 00:11:14;;;;;;;;;;;;;;;-144.99;83.39;52360.44;5039772;28;19929;-72
2023/05/04 00:13:41;;;;;;;;;;;;;;;-144.99;83.32;52356.38;5042685;28;20283;-72
2023/05/04 00:16:07;;;;;;;;;;;;;;;-144.99;83.39;52354.34;5047314;28;19940;-72
2023/05/04 00:18:34;;;;;;;;;;;;;;;-144.99;83.55;52313.56;5037769;28;19933;-72
2023/05/04 00:21:00;;;;;;;;;;;;;;;-144.99;83.35;52333.94;5045355;28;19929;-73
2023/05/04 00:23:27;;;;;;;;;;;;;;;-144.99;83.62;52297.25;5034513;28;20023;-72
2023/05/04 00:25:55;;;;;;;;;;;;;;;-144.99;84.01;52354.34;5037063;28;19984;-72
2023/05/04 00:28:21;;;;;;;;;;;;;;;-144.99;84.17;52354.34;5040627;28;20390;-72
2023/05/04 00:30:48;;;;;;;;;;;;;;;-144.99;84.40;52360.44;5038175;28;20014;-72
2023/05/04 00:33:15;;;;;;;;;;;;;;;-144.99;83.98;52350.25;5041918;28;20047;-73
2023/05/04 00:35:41;;;;;;;;;;;;;;;-144.99;83.79;52329.88;5045892;28;19929;-73
2023/05/04 00:38:08;;;;;;;;;;;;;;;-144.99;84.16;52374.72;5036306;28;20010;-72
2023/05/04 00:40:35;;;;;;;;;;;;;;;-144.99;84.05;52346.19;5045207;28;19936;-72
2023/05/04 00:43:03;;;;;;;;;;;;;;;-144.99;84.21;52336.00;5048158;28;19925;-72
2023/05/04 00:45:30;;;;;;;;;;;;;;;-144.99;84.10;52301.34;5041853;28;19929;-72
2023/05/04 00:47:57;;;;;;;;;;;;;;;-144.99;84.19;52344.16;5039364;28;19948;-72
2023/05/04 00:50:25;;;;;;;;;;;;;;;-144.99;84.09;52303.38;5039973;28;19990;-72
2023/05/04 00:52:52;;;;;;;;;;;;;;;-144.99;84.42;52313.56;5046427;28;20092;-72
2023/05/04 00:55:19;;;;;;;;;;;;;;;-144.99;84.38;52313.56;5041763;28;19924;-72
2023/05/04 00:57:46;;;;;;;;;;;;;;;-144.99;84.42;52352.28;5043782;28;19925;-72
2023/05/04 01:00:14;;;;;;;;;;;;;;;-144.99;84.70;52378.78;5040728;28;19991;-74
2023/05/04 01:02:41;;;;;;;;;;;;;;;-144.99;84.50;52321.72;5033615;28;20617;-74
2023/05/04 01:05:08;;;;;;;;;;;;;;;-144.99;84.60;52309.50;5042378;28;19929;-74
2023/05/04 01:07:38;;;;;;;;;;;;;;;-144.99;84.52;52374.72;5046598;28;19990;-74
2023/05/04 01:10:08;;;;;;;;;;;;;;;-144.99;84.61;52325.81;5038780;28;19936;-74
2023/05/04 01:12:37;;;;;;;;;;;;;;;-144.99;84.66;52331.91;5047605;28;19929;-74
2023/05/04 01:15:05;;;;;;;;;;;;;;;-144.99;84.93;52338.03;5040063;28;19983;-74
2023/05/04 01:17:33;;;;;;;;;;;;;;;-144.99;85.89;52354.34;5046068;28;20259;-74
2023/05/04 01:20:00;;;;;;;;;;;;;;;-144.99;84.91;52350.25;5037696;28;19925;-74
2023/05/04 01:22:28;;;;;;;;;;;;;;;-144.99;84.77;52362.50;5037280;28;20365;-75
2023/05/04 01:24:55;;;;;;;;;;;;;;;-144.99;84.93;52329.88;5042915;28;19925;-75
2023/05/04 01:27:23;;;;;;;;;;;;;;;-144.99;84.82;52360.44;5044446;28;20298;-73
2023/05/04 01:29:54;;;;;;;;;;;;;;;-144.99;84.96;52372.69;5037275;28;19979;-73
2023/05/04 01:32:21;;;;;;;;;;;;;;;-144.99;84.96;52362.50;5035781;28;20225;-73
2023/05/04 01:34:48;;;;;;;;;;;;;;;-144.99;85.10;52346.19;5031907;28;19932;-74
2023/05/04 01:37:15;;;;;;;;;;;;;;;-144.99;85.21;52336.00;5043077;28;19939;-73
2023/05/04 01:39:42;;;;;;;;;;;;;;;-144.99;85.59;52358.41;5051532;28;20028;-73
2023/05/04 01:42:09;;;;;;;;;;;;;;;-144.99;85.43;52313.56;5050238;28;19929;-73
2023/05/04 01:44:36;;;;;;;;;;;;;;;-144.99;85.55;52329.88;5047220;28;20246;-73
2023/05/04 01:47:02;;;;;;;;;;;;;;;-144.99;85.65;52350.25;5047000;28;19987;-73
2023/05/04 01:49:29;;;;;;;;;;;;;;;-144.99;86.00;52370.63;5047775;28;20367;-73
2023/05/04 01:51:55;;;;;;;;;;;;;;;-144.99;86.01;52329.88;5046727;28;19929;-73
2023/05/04 01:54:22;;;;;;;;;;;;;;;-144.99;85.79;52313.56;5038788;28;19979;-72
2023/05/04 01:56:50;;;;;;;;;;;;;;;-144.99;85.80;52344.16;5050505;28;19989;-73
2023/05/04 01:59:17;;;;;;;;;;;;;;;-144.99;85.75;52338.03;5049546;28;19951;-73
2023/05/04 02:01:43;;;;;;;;;;;;;;;-144.99;86.71;52374.72;5044365;28;19987;-72
2023/05/04 02:04:10;;;;;;;;;;;;;;;-144.99;86.23;52317.66;5037420;28;19936;-73
2023/05/04 02:06:36;;;;;;;;;;;;;;;-144.99;86.00;52338.03;5048310;28;19978;-74
2023/05/04 02:09:03;;;;;;;;;;;;;;;-144.99;85.88;52366.56;5041394;28;19991;-73
2023/05/04 02:11:30;;;;;;;;;;;;;;;-144.99;85.84;52362.50;5049427;28;19944;-74
2023/05/04 02:13:58;;;;;;;;;;;;;;;-144.99;85.93;52368.59;5039846;28;19925;-75
2023/05/04 02:16:25;;;;;;;;;;;;;;;-144.99;85.97;52366.56;5044612;28;19929;-74
2023/05/04 02:18:52;;;;;;;;;;;;;;;-144.99;85.65;52348.22;5038927;28;20015;-73
2023/05/04 02:21:18;;;;;;;;;;;;;;;-144.99;85.77;52329.88;5046037;28;19925;-74
2023/05/04 02:23:45;;;;;;;;;;;;;;;-144.99;85.84;52354.34;5042470;28;19955;-75
2023/05/04 02:26:11;;;;;;;;;;;;;;;-144.99;85.77;52350.25;5051532;28;20176;-72
2023/05/04 02:28:38;;;;;;;;;;;;;;;-144.99;86.46;52289.13;5052266;28;20001;-74
2023/05/04 02:31:06;;;;;;;;;;;;;;;-144.99;88.62;52342.09;5046993;28;19929;-73
2023/05/04 02:33:32;;;;;;;;;;;;;;;-144.99;88.79;52356.38;5043899;28;19933;-72
2023/05/04 02:35:59;;;;;;;;;;;;;;;-144.99;88.69;52325.81;5049016;28;19978;-72
2023/05/04 02:38:26;;;;;;;;;;;;;;;-144.99;88.52;52346.19;5050957;28;19929;-71
2023/05/04 02:40:52;;;;;;;;;;;;;;;-144.99;88.67;52350.25;5041336;28;19929;-73
2023/05/04 02:43:19;;;;;;;;;;;;;;;-144.99;88.83;52364.53;5046696;28;19925;-72
2023/05/04 02:45:45;;;;;;;;;;;;;;;-144.99;88.81;52350.25;5040524;28;19983;-73
2023/05/04 02:48:13;;;;;;;;;;;;;;;-144.99;88.68;52350.25;5045494;28;19924;-74
2023/05/04 02:50:39;;;;;;;;;;;;;;;-144.99;88.86;52321.72;5048649;28;19990;-74
2023/05/04 02:53:06;;;;;;;;;;;;;;;-144.99;89.53;52370.63;5039541;28;19979;-73
2023/05/04 02:55:32;;;;;;;;;;;;;;;-144.99;89.90;52360.44;5037216;28;19990;-73
2023/05/04 02:58:00;;;;;;;;;;;;;;;-144.99;90.08;52348.22;5051750;28;19924;-73
2023/05/04 03:00:26;;;;;;;;;;;;;;;-144.99;90.23;52395.09;5038209;28;19932;-73
2023/05/04 03:02:53;;;;;;;;;;;;;;;-144.99;90.48;52356.38;5043415;28;19925;-73
2023/05/04 03:05:21;;;;;;;;;;;;;;;-144.99;90.65;52333.94;5042546;28;20175;-74
2023/05/04 03:07:48;;;;;;;;;;;;;;;-144.99;90.56;52391.03;5042604;28;20425;-74
2023/05/04 03:10:14;;;;;;;;;;;;;;;-144.99;90.42;52352.28;5041032;28;19991;-74
2023/05/04 03:12:41;;;;;;;;;;;;;;;-144.99;90.86;52333.94;5041614;28;20479;-73
2023/05/04 03:15:08;;;;;;;;;;;;;;;-144.99;91.20;52362.50;5042622;28;20271;-73
2023/05/04 03:17:35;;;;;;;;;;;;;;;-144.99;91.19;52350.25;5045006;28;19939;-73
2023/05/04 03:20:02;;;;;;;;;;;;;;;-144.99;91.30;52358.41;5037939;28;19925;-73
2023/05/04 03:22:30;;;;;;;;;;;;;;;-144.99;91.42;52364.53;5035174;28;19947;-73
2023/05/04 03:24:56;;;;;;;;;;;;;;;-144.99;91.58;52342.09;5038658;28;20004;-73
2023/05/04 03:27:23;;;;;;;;;;;;;;;-144.99;91.53;52370.63;5044660;28;19959;-75
2023/05/04 03:29:50;;;;;;;;;;;;;;;-144.99;91.44;52325.81;5051894;28;19946;-75
2023/05/04 03:32:16;;;;;;;;;;;;;;;-144.99;91.85;52374.72;5051070;28;19986;-75
2023/05/04 03:34:44;;;;;;;;;;;;;;;-144.99;91.98;52360.44;5049627;28;20305;-73
2023/05/04 03:37:11;;;;;;;;;;;;;;;-144.99;92.04;52366.56;5050491;28;20362;-75
2023/05/04 03:39:39;;;;;;;;;;;;;;;-144.99;92.19;52333.94;5049527;28;19929;-74
2023/05/04 03:42:05;;;;;;;;;;;;;;;-144.99;92.35;52338.03;5031402;28;19944;-75
2023/05/04 03:44:33;;;;;;;;;;;;;;;-144.99;92.54;52346.19;5053286;28;21193;-75
2023/05/04 03:47:00;;;;;;;;;;;;;;;-144.99;92.47;52321.72;5056491;28;19925;-74
2023/05/04 03:49:27;;;;;;;;;;;;;;;-144.99;92.75;52333.94;5049129;28;20353;-74
2023/05/04 03:51:53;;;;;;;;;;;;;;;-144.99;92.73;52346.19;5047940;28;19929;-74
2023/05/04 03:54:20;;;;;;;;;;;;;;;-144.99;92.87;52333.94;5047905;28;20059;-75
2023/05/04 03:56:48;;;;;;;;;;;;;;;-144.99;92.94;52311.53;5046900;28;19929;-74
2023/05/04 03:59:14;;;;;;;;;;;;;;;-144.99;93.07;52346.19;5046761;28;19932;-74
2023/05/04 04:01:41;;;;;;;;;;;;;;;-144.99;92.74;52321.72;5040670;28;19978;-73
2023/05/04 04:04:07;;;;;;;;;;;;;;;-144.99;92.80;52348.22;5046962;28;19928;-74
2023/05/04 04:06:34;;;;;;;;;;;;;;;-144.99;93.12;52333.94;5041800;28;20381;-74
2023/05/04 04:09:00;;;;;;;;;;;;;;;-144.99;93.23;52395.09;5040195;28;19929;-72
2023/05/04 04:11:27;;;;;;;;;;;;;;;-144.99;93.19;52321.72;5051166;28;19971;-74
2023/05/04 04:13:55;;;;;;;;;;;;;;;-144.99;93.31;52333.94;5043057;28;19924;-74
2023/05/04 04:16:22;;;;;;;;;;;;;;;-144.99;93.16;52327.84;5043470;28;19959;-75
2023/05/04 04:18:48;;;;;;;;;;;;;;;-144.99;93.67;52354.34;5035335;28;20332;-74
2023/05/04 04:21:15;;;;;;;;;;;;;;;-144.99;94.13;52307.47;5039974;28;19959;-76
2023/05/04 04:23:41;;;;;;;;;;;;;;;-144.99;94.19;52346.19;5040217;28;19929;-74
2023/05/04 04:26:08;;;;;;;;;;;;;;;-144.99;93.77;52321.72;5035033;28;19964;-75
2023/05/04 04:28:34;;;;;;;;;;;;;;;-144.99;94.17;52331.91;5043565;28;19986;-74
2023/05/04 04:31:03;;;;;;;;;;;;;;;-144.99;93.98;52313.56;5040845;28;19925;-74
2023/05/04 04:33:30;;;;;;;;;;;;;;;-144.99;93.93;52350.25;5044753;28;19925;-73
2023/05/04 04:35:56;;;;;;;;;;;;;;;-144.99;94.01;52338.03;5032604;28;19933;-73
2023/05/04 04:38:23;;;;;;;;;;;;;;;-144.99;93.38;52321.72;5040749;28;19932;-74
2023/05/04 04:40:50;;;;;;;;;;;;;;;-144.99;93.48;52313.56;5040195;28;20449;-73
2023/05/04 04:43:16;;;;;;;;;;;;;;;-144.99;93.55;52321.72;5048149;28;19984;-73
2023/05/04 04:45:44;;;;;;;;;;;;;;;-144.99;92.84;52354.34;5040569;28;20455;-75
2023/05/04 04:48:11;;;;;;;;;;;;;;;-144.99;93.26;52295.22;5037898;28;19925;-74
2023/05/04 04:50:38;;;;;;;;;;;;;;;-144.99;92.89;52362.50;5046297;28;19928;-75
2023/05/04 04:53:05;;;;;;;;;;;;;;;-144.99;92.47;52313.56;5043425;28;20400;-75
2023/05/04 04:55:33;;;;;;;;;;;;;;;-144.99;92.56;52303.38;5040280;28;19986;-75
2023/05/04 04:57:59;;;;;;;;;;;;;;;-144.99;92.36;52311.53;5037563;28;19925;-75
2023/05/04 05:00:26;;;;;;;;;;;;;;;-144.99;91.64;52317.66;5039747;28;19963;-73
2023/05/04 05:02:53;;;;;;;;;;;;;;;-144.99;91.73;52333.94;5042711;28;19925;-76
2023/05/04 05:05:20;;;;;;;;;;;;;;;-144.99;91.94;52305.41;5041547;28;19964;-75
2023/05/04 05:07:47;;;;;;;;;;;;;;;-144.99;91.78;52270.78;5042678;28;19925;-74
2023/05/04 05:10:14;;;;;;;;;;;;;;;-144.99;91.51;52325.81;5041251;28;20071;-73
2023/05/04 05:12:40;;;;;;;;;;;;;;;-144.99;91.40;52293.19;5048388;28;19929;-75
2023/05/04 05:15:07;;;;;;;;;;;;;;;-144.99;91.40;52301.34;5039161;28;19999;-75
2023/05/04 05:17:34;;;;;;;;;;;;;;;-144.99;91.20;52307.47;5049662;28;19933;-76
2023/05/04 05:20:00;;;;;;;;;;;;;;;-144.99;90.96;52285.03;5042348;28;20114;-76
2023/05/04 05:22:29;;;;;;;;;;;;;;;-144.99;90.79;52307.47;5046964;28;19925;-75
2023/05/04 05:24:55;;;;;;;;;;;;;;;-144.99;90.23;52329.88;5045354;28;19986;-75
2023/05/04 05:27:22;;;;;;;;;;;;;;;-144.99;89.90;52297.25;5050213;28;19943;-75
2023/05/04 05:29:48;;;;;;;;;;;;;;;-144.99;89.27;52305.41;5044594;28;19929;-75
2023/05/04 05:32:15;;;;;;;;;;;;;;;-144.99;88.84;52305.41;5042468;28;20070;-75
2023/05/04 05:34:41;;;;;;;;;;;;;;;-144.99;88.40;52297.25;5044990;28;19925;-75
2023/05/04 05:37:08;;;;;;;;;;;;;;;-144.99;88.42;52289.13;5046415;28;19993;-75
2023/05/04 05:39:36;;;;;;;;;;;;;;;-144.99;87.36;52297.25;5056127;28;19929;-75
2023/05/04 05:42:04;;;;;;;;;;;;;;;-144.99;87.44;52297.25;5057321;28;19967;-74
2023/05/04 05:44:31;;;;;;;;;;;;;;;-144.99;86.59;52297.25;5048891;28;20450;-74
2023/05/04 05:46:57;;;;;;;;;;;;;;;-144.99;85.93;52285.03;5043491;28;19928;-72
2023/05/04 05:49:24;;;;;;;;;;;;;;;-144.99;85.59;52336.00;5040038;28;20398;-73
2023/05/04 05:51:51;;;;;;;;;;;;;;;-144.99;85.18;52291.16;5053794;28;20443;-74
2023/05/04 05:54:18;;;;;;;;;;;;;;;-144.99;84.83;52280.97;5048621;28;20003;-73
2023/05/04 05:56:46;;;;;;;;;;;;;;;-144.99;84.29;52289.13;5040635;28;19932;-76
2023/05/04 05:59:12;;;;;;;;;;;;;;;-144.99;83.04;52289.13;5045402;28;19983;-80
2023/05/04 06:01:39;;;;;;;;;;;;;;;-144.99;82.72;52264.66;5049373;28;19983;-73
2023/05/04 06:04:06;;;;;;;;;;;;;;;-144.99;83.23;52313.56;5038045;28;19947;-63
2023/05/04 06:06:32;;;;;;;;;;;;;;;-144.99;82.82;52260.56;5049053;28;19997;-63
2023/05/04 06:08:59;;;;;;;;;;;;;;;-144.99;81.76;52289.13;5043148;28;20074;-63
2023/05/04 06:11:26;;;;;;;;;;;;;;;-144.99;82.41;52268.72;5049627;28;19960;-67
2023/05/04 06:13:54;;;;;;;;;;;;;;;-144.99;81.54;52289.13;5042662;28;19972;-68
2023/05/04 06:16:20;;;;;;;;;;;;;;;-144.99;80.60;52309.50;5043875;28;19929;-68
2023/05/04 06:18:47;;;;;;;;;;;;;;;-144.99;79.60;52256.50;5032687;28;19933;-67
2023/05/04 06:21:13;;;;;;;;;;;;;;;-144.99;79.14;52260.56;5040878;28;19929;-67
2023/05/04 06:23:40;;;;;;;;;;;;;;;-144.99;79.26;52283.00;5039266;28;19936;-68
2023/05/04 06:26:06;;;;;;;;;;;;;;;-144.99;79.05;52289.13;5042605;28;20187;-68
2023/05/04 06:28:33;;;;;;;;;;;;;;;-144.99;78.92;52252.44;5039959;28;19925;-68
2023/05/04 06:31:02;;;;;;;;;;;;;;;-144.99;78.52;52295.22;5039160;28;19925;-68
2023/05/04 06:33:29;;;;;;;;;;;;;;;-144.99;77.95;52252.44;5044544;28;19979;-69
2023/05/04 06:35:55;;;;;;;;;;;;;;;-144.99;77.84;52321.72;5038478;28;20022;-69
2023/05/04 06:38:21;;;;;;;;;;;;;;;-144.99;78.15;52252.44;5039413;28;19987;-68
2023/05/04 06:40:48;;;;;;;;;;;;;;;-144.99;77.92;52268.72;5041106;28;19982;-68
2023/05/04 06:43:15;;;;;;;;;;;;;;;-144.99;78.11;52283.00;5049410;28;20363;-69
2023/05/04 06:45:42;;;;;;;;;;;;;;;-144.99;77.90;52258.53;5036231;28;20354;-69
2023/05/04 06:48:11;;;;;;;;;;;;;;;-144.99;77.68;52297.25;5039916;28;20011;-69
2023/05/04 06:50:39;;;;;;;;;;;;;;;-144.99;77.95;52264.66;5049082;28;20140;-69
2023/05/04 06:53:07;;;;;;;;;;;;;;;-144.99;77.60;52285.03;5047129;28;19929;-68
2023/05/04 06:55:33;;;;;;;;;;;;;;;-144.99;76.63;52280.97;5033357;28;19925;-68
2023/05/04 06:58:00;;;;;;;;;;;;;;;-144.99;76.79;52260.56;5039115;28;19932;-69
2023/05/04 07:00:27;;;;;;;;;;;;;;;-144.99;76.61;52256.50;5041618;28;19925;-69
2023/05/04 07:02:53;;;;;;;;;;;;;;;-144.99;76.44;52291.16;5041607;28;20406;-69
2023/05/04 07:05:21;;;;;;;;;;;;;;;-144.99;75.79;52256.50;5045110;28;19925;-69
2023/05/04 07:07:48;;;;;;;;;;;;;;;-144.99;75.35;52260.56;5045589;28;20008;-68
2023/05/04 07:10:14;;;;;;;;;;;;;;;-144.99;75.29;52236.13;5039671;28;19928;-68
2023/05/04 07:12:41;;;;;;;;;;;;;;;-144.99;74.72;52219.81;5049469;28;20392;-68
2023/05/04 07:15:08;;;;;;;;;;;;;;;-144.99;74.85;52268.72;5049328;28;20301;-67
2023/05/04 07:17:36;;;;;;;;;;;;;;;-144.99;74.03;52223.88;5048044;28;19929;-68
2023/05/04 07:20:03;;;;;;;;;;;;;;;-144.99;74.13;52236.13;5048830;28;19978;-68
2023/05/04 07:22:31;;;;;;;;;;;;;;;-144.99;74.11;52227.97;5043931;28;19964;-68
2023/05/04 07:24:57;;;;;;;;;;;;;;;-144.99;73.77;52221.84;5044274;28;19929;-68
2023/05/04 07:27:24;;;;;;;;;;;;;;;-144.99;74.02;52232.03;5042976;28;19933;-68
2023/05/04 07:29:51;;;;;;;;;;;;;;;-144.99;74.14;52248.34;5049070;28;19936;-68
2023/05/04 07:32:18;;;;;;;;;;;;;;;-144.99;74.06;52260.56;5048854;28;20255;-68
2023/05/04 07:34:44;;;;;;;;;;;;;;;-144.99;73.45;52264.66;5038365;28;20030;-68
2023/05/04 07:37:11;;;;;;;;;;;;;;;-144.99;73.59;52246.31;5047786;28;19929;-68
2023/05/04 07:39:39;;;;;;;;;;;;;;;-144.99;73.53;52276.88;5042328;28;19929;-68
2023/05/04 07:42:05;;;;;;;;;;;;;;;-144.99;73.57;52219.81;5040260;28;20010;-68
2023/05/04 07:44:32;;;;;;;;;;;;;;;-144.99;72.74;52232.03;5036267;28;19968;-68
2023/05/04 07:46:58;;;;;;;;;;;;;;;-144.99;72.56;52236.13;5041096;28;19928;-68
2023/05/04 07:49:25;;;;;;;;;;;;;;;-144.99;72.15;52219.81;5047846;28;20151;-68
2023/05/04 07:51:51;;;;;;;;;;;;;;;-144.99;71.65;52297.25;5044291;28;20413;-68
2023/05/04 07:54:18;;;;;;;;;;;;;;;-144.99;71.53;52199.44;5035504;28;19940;-68
2023/05/04 07:56:46;;;;;;;;;;;;;;;-144.99;71.23;52244.28;5035623;28;20175;-69
2023/05/04 07:59:12;;;;;;;;;;;;;;;-144.99;71.14;52211.66;5041672;28;19925;-69
2023/05/04 08:01:39;;;;;;;;;;;;;;;-144.99;70.75;52179.06;5045148;28;20443;-69
2023/05/04 08:04:05;;;;;;;;;;;;;;;-144.99;70.78;52230.00;5035049;28;20378;-70
2023/05/04 08:06:38;;;;;;;;;;;;;;;-144.99;70.09;52211.66;5048345;28;19990;-70
2023/05/04 08:09:04;;;;;;;;;;;;;;;-144.99;69.82;52219.81;5037251;28;19929;-70
2023/05/04 08:11:33;;;;;;;;;;;;;;;-144.99;69.64;52250.38;5046733;28;20023;-68
2023/05/04 08:14:01;;;;;;;;;;;;;;;-144.99;70.03;52187.19;5042163;28;19925;-69
2023/05/04 08:16:28;;;;;;;;;;;;;;;-144.99;69.57;52174.97;5046204;28;19932;-69
2023/05/04 08:18:55;;;;;;;;;;;;;;;-144.99;68.98;52191.28;5042072;28;19936;-68
2023/05/04 08:21:21;;;;;;;;;;;;;;;-144.99;69.07;52223.88;5040365;28;19925;-69
2023/05/04 08:23:48;;;;;;;;;;;;;;;-144.99;68.64;52166.81;5043412;28;19925;-69
2023/05/04 08:26:15;;;;;;;;;;;;;;;-144.99;68.92;52174.97;5034286;28;20028;-70
2023/05/04 08:28:41;;;;;;;;;;;;;;;-144.99;68.72;52191.28;5036436;28;20023;-68
2023/05/04 08:31:09;;;;;;;;;;;;;;;-144.99;68.71;52166.81;5042380;28;20091;-69
2023/05/04 08:33:36;;;;;;;;;;;;;;;-144.99;68.84;52195.34;5036328;28;19960;-69
2023/05/04 08:36:03;;;;;;;;;;;;;;;-144.99;68.58;52240.19;5036214;28;19960;-68
2023/05/04 08:38:30;;;;;;;;;;;;;;;-144.99;68.63;52179.06;5036365;28;19929;-68
2023/05/04 08:40:56;;;;;;;;;;;;;;;-144.99;68.07;52197.41;5043072;28;19933;-71
2023/05/04 08:43:23;;;;;;;;;;;;;;;-144.99;68.10;52174.97;5042783;28;19929;-70
2023/05/04 08:45:50;;;;;;;;;;;;;;;-144.99;68.05;52215.75;5046124;28;20323;-70
2023/05/04 08:48:18;;;;;;;;;;;;;;;-144.99;67.92;52179.06;5052624;28;20004;-70
2023/05/04 08:50:44;;;;;;;;;;;;;;;-144.99;67.39;52227.97;5047043;28;19936;-70
2023/05/04 08:53:12;;;;;;;;;;;;;;;-144.99;66.90;52244.28;5043844;28;19990;-70
2023/05/04 08:55:39;;;;;;;;;;;;;;;-144.99;66.75;52164.78;5037824;28;20526;-70
2023/05/04 08:58:09;;;;;;;;;;;;;;;-144.99;67.42;52179.06;5052661;28;19950;-70
2023/05/04 09:00:36;;;;;;;;;;;;;;;-144.99;67.43;52207.59;5045326;28;19933;-70
2023/05/04 09:03:03;;;;;;;;;;;;;;;-144.99;67.18;52177.00;5046355;28;19990;-70
2023/05/04 09:05:31;;;;;;;;;;;;;;;-144.99;66.75;52177.00;5041242;28;19928;-70
2023/05/04 09:07:58;;;;;;;;;;;;;;;-144.99;66.47;52177.00;5043071;28;20239;-71
2023/05/04 09:10:25;;;;;;;;;;;;;;;-144.99;66.34;52211.66;5042279;28;19926;-70
2023/05/04 09:12:54;;;;;;;;;;;;;;;-144.99;66.18;52179.06;5037182;28;19936;-69
2023/05/04 09:15:21;;;;;;;;;;;;;;;-144.99;66.36;52168.84;5050721;28;20321;-69
2023/05/04 09:17:54;;;;;;;;;;;;;;;-144.99;66.25;52199.44;5046457;28;20122;-69
2023/05/04 09:20:21;;;;;;;;;;;;;;;-144.99;65.77;52187.19;5039776;28;19979;-69
2023/05/04 09:22:59;;;;;;;;;;;;;;;-144.99;65.57;52179.06;5050987;28;20027;-71
2023/05/04 09:25:26;;;;;;;;;;;;;;;-144.99;65.39;52166.81;5050347;28;19925;-71
2023/05/04 09:27:53;;;;;;;;;;;;;;;-144.99;65.80;52179.06;5054182;28;19964;-71
2023/05/04 09:30:20;;;;;;;;;;;;;;;-144.99;65.76;52166.81;5054206;28;19935;-69
2023/05/04 09:32:48;;;;;;;;;;;;;;;-144.99;65.95;52195.34;5054279;28;20290;-71
2023/05/04 09:35:15;;;;;;;;;;;;;;;-144.99;65.42;52179.06;5050075;28;20022;-71
2023/05/04 09:37:45;;;;;;;;;;;;;;;-144.99;65.41;52174.97;5041985;28;19925;-71
2023/05/04 09:40:14;;;;;;;;;;;;;;;-144.99;64.75;52183.13;5048774;28;19933;-70
2023/05/04 09:42:41;;;;;;;;;;;;;;;-144.99;65.10;52183.13;5042922;28;20362;-70
2023/05/04 09:45:08;;;;;;;;;;;;;;;-144.99;65.32;52191.28;5046884;28;20326;-70
2023/05/04 09:47:36;;;;;;;;;;;;;;;-144.99;64.92;52152.56;5047056;28;19990;-70
2023/05/04 09:50:13;;;;;;;;;;;;;;;-144.99;64.46;52146.44;5045895;28;19937;-70
2023/05/04 09:52:41;;;;;;;;;;;;;;;-144.99;64.67;52146.44;5039909;28;20027;-70
2023/05/04 09:55:10;;;;;;;;;;;;;;;-144.99;64.91;52154.59;5044213;28;19979;-70
2023/05/04 09:57:38;;;;;;;;;;;;;;;-144.99;64.00;52195.34;5040249;28;19929;-70
2023/05/04 10:00:06;;;;;;;;;;;;;;;-144.99;64.08;52174.97;5050520;28;20146;-70
2023/05/04 10:02:33;;;;;;;;;;;;;;;-144.99;63.19;52146.44;5041832;28;19983;-71
2023/05/04 10:05:00;;;;;;;;;;;;;;;-144.99;63.35;52174.97;5040311;28;19925;-71
2023/05/04 10:07:29;;;;;;;;;;;;;;;-144.99;63.87;52148.47;5047225;28;19998;-71
2023/05/04 10:09:58;;;;;;;;;;;;;;;-144.99;63.07;52113.84;5038212;28;19932;-71
2023/05/04 10:12:24;;;;;;;;;;;;;;;-144.99;62.85;52132.19;5046124;28;19928;-71
2023/05/04 10:14:52;;;;;;;;;;;;;;;-144.99;62.33;52085.31;5048294;28;20008;-72
2023/05/04 10:17:25;;;;;;;;;;;;;;;-144.99;62.17;52105.69;5035447;28;19990;-71
2023/05/04 10:19:59;;;;;;;;;;;;;;;-144.99;61.32;52109.75;5042260;28;19998;-72
2023/05/04 10:22:33;;;;;;;;;;;;;;;-144.99;61.59;52138.28;5049251;28;20428;-72
2023/05/04 10:25:17;;;;;;;;;;;;;;;-144.99;61.16;52075.09;5050072;28;19924;-71
2023/05/04 10:27:49;;;;;;;;;;;;;;;-144.99;61.09;52097.53;5043377;28;19925;-71
2023/05/04 10:30:19;;;;;;;;;;;;;;;-144.99;60.81;52113.84;5032800;28;19976;-72
2023/05/04 10:32:45;;;;;;;;;;;;;;;-144.99;60.84;52105.69;5040881;28;19958;-72
2023/05/04 10:35:13;;;;;;;;;;;;;;;-144.99;60.93;52081.22;5037789;28;19928;-70
2023/05/04 10:37:50;;;;;;;;;;;;;;;-144.99;60.28;52089.38;5040167;28;19928;-71
2023/05/04 10:40:16;;;;;;;;;;;;;;;-144.99;60.34;52056.78;5049814;28;20002;-71
2023/05/04 10:42:44;;;;;;;;;;;;;;;-144.99;60.40;52018.03;5049674;28;19932;-70
2023/05/04 10:45:11;;;;;;;;;;;;;;;-144.99;59.72;52020.09;5043020;28;20437;-71
2023/05/04 10:47:41;;;;;;;;;;;;;;;-144.99;58.94;52036.38;5046753;28;20054;-72
2023/05/04 10:50:09;;;;;;;;;;;;;;;-144.99;58.72;52003.78;5049210;28;19975;-72
2023/05/04 10:52:45;;;;;;;;;;;;;;;-144.99;58.51;52052.69;5043835;28;20040;-72
2023/05/04 10:55:12;;;;;;;;;;;;;;;-144.99;58.63;52044.53;5048461;28;19931;-72
2023/05/04 10:57:48;;;;;;;;;;;;;;;-144.99;57.96;52020.09;5047952;28;19982;-72
2023/05/04 11:00:15;;;;;;;;;;;;;;;-144.99;58.38;51991.56;5042595;28;19951;-72
2023/05/04 11:02:45;;;;;;;;;;;;;;;-144.99;57.32;51971.16;5038422;28;20346;-72
2023/05/04 11:05:17;;;;;;;;;;;;;;;-144.99;57.37;51991.56;5044624;28;20023;-72
2023/05/04 11:07:44;;;;;;;;;;;;;;;-144.99;57.69;52024.16;5040004;28;20359;-72
2023/05/04 11:10:20;;;;;;;;;;;;;;;-144.99;57.67;51956.91;5039501;28;19933;-72
2023/05/04 11:12:47;;;;;;;;;;;;;;;-144.99;57.43;52011.94;5032360;28;19964;-73
2023/05/04 11:15:13;;;;;;;;;;;;;;;-144.99;57.50;52044.53;5036762;28;19961;-72
2023/05/04 11:17:47;;;;;;;;;;;;;;;-144.99;58.05;52089.38;5042963;28;19929;-72
2023/05/04 11:20:20;;;;;;;;;;;;;;;-144.99;58.42;52105.69;5041746;28;19932;-72
2023/05/04 11:22:47;;;;;;;;;;;;;;;-144.99;58.68;52085.31;5045161;28;19924;-72
2023/05/04 11:25:13;;;;;;;;;;;;;;;-144.99;58.47;52097.53;5050295;28;20004;-71
2023/05/04 11:27:41;;;;;;;;;;;;;;;-144.99;58.41;52091.41;5039729;28;20035;-71
2023/05/04 11:30:09;;;;;;;;;;;;;;;-144.99;58.47;52093.44;5045837;28;20375;-71
2023/05/04 11:32:36;;;;;;;;;;;;;;;-144.99;58.02;52077.16;5050845;28;19986;-71
2023/05/04 11:35:05;;;;;;;;;;;;;;;-144.99;57.84;52028.22;5036369;28;19925;-71
2023/05/04 11:37:37;;;;;;;;;;;;;;;-144.99;57.52;52054.72;5049901;28;19925;-71
2023/05/04 11:40:08;;;;;;;;;;;;;;;-144.99;57.37;52028.22;5048301;28;20373;-71
2023/05/04 11:42:35;;;;;;;;;;;;;;;-144.99;57.30;52028.22;5040952;28;19941;-71
2023/05/04 11:45:04;;;;;;;;;;;;;;;-144.99;56.88;52016.00;5040566;28;19924;-71
2023/05/04 11:47:30;;;;;;;;;;;;;;;-144.99;57.14;52024.16;5040555;28;19929;-72
2023/05/04 11:49:57;;;;;;;;;;;;;;;-144.99;57.08;52042.50;5041400;28;20015;-72
2023/05/04 11:52:26;;;;;;;;;;;;;;;-144.99;57.26;52020.09;5042442;28;20275;-72
2023/05/04 11:54:56;;;;;;;;;;;;;;;-144.99;57.19;52048.63;5041593;28;19925;-72
2023/05/04 11:57:23;;;;;;;;;;;;;;;-144.99;57.39;52056.78;5037006;28;19987;-71
2023/05/04 11:59:50;;;;;;;;;;;;;;;-144.99;56.92;52064.91;5049456;28;19982;-72
2023/05/04 12:02:17;;;;;;;;;;;;;;;-144.99;56.60;52032.31;5046596;28;20421;-72
2023/05/04 12:04:43;;;;;;;;;;;;;;;-144.99;56.68;51999.69;5057025;22;20372;-70
2023/05/04 12:07:10;;;;;;;;;;;;;;;-144.99;56.74;52020.09;5051935;28;19928;-71
2023/05/04 12:09:45;;;;;;;;;;;;;;;-144.99;56.79;52073.06;5068756;28;19924;-69
2023/05/04 12:12:12;;;;;;;;;;;;;;;-144.99;56.25;51983.41;5067841;28;20082;-71
2023/05/04 12:14:46;;;;;;;;;;;;;;;-144.99;55.98;52034.34;5056266;28;19925;-71
2023/05/04 12:17:13;;;;;;;;;;;;;;;-144.99;55.73;51987.47;5052418;28;20039;-70
2023/05/04 12:19:46;;;;;;;;;;;;;;;-144.99;55.91;52081.22;5060989;28;20270;-70
2023/05/04 12:22:13;;;;;;;;;;;;;;;-144.99;55.39;52020.09;5054052;28;19928;-70
2023/05/04 12:24:40;;;;;;;;;;;;;;;-144.99;55.86;52050.66;5049817;28;19976;-70
2023/05/04 12:27:13;;;;;;;;;;;;;;;-144.99;55.76;52040.47;5054472;28;19977;-70
2023/05/04 12:29:40;;;;;;;;;;;;;;;-144.99;55.22;52020.09;5049700;28;19925;-70